createdAt,value
2018-07-01T00:01:56.990Z,18.53
2018-07-01T00:04:23.903Z,18.39
2018-07-01T00:06:50.745Z,18.32
2018-07-01T00:09:17.643Z,18.28
2018-07-01T00:11:44.598Z,18.24
2018-07-01T00:14:11.555Z,18.18
2018-07-01T00:16:39.475Z,18.20
2018-07-01T00:19:13.650Z,18.17
2018-07-01T00:21:40.723Z,18.23
2018-07-01T00:27:00.150Z,17.96
2018-07-01T00:29:34.311Z,18.05
2018-07-01T00:32:04.218Z,17.94
2018-07-01T00:34:34.133Z,17.82
2018-07-01T00:37:01.063Z,17.66
2018-07-01T00:39:29.982Z,17.79
2018-07-01T00:41:56.918Z,17.76
2018-07-01T00:44:24.710Z,17.75
2018-07-01T00:46:51.681Z,17.63
2018-07-01T00:49:23.850Z,17.64
2018-07-01T00:51:56.907Z,17.58
2018-07-01T00:54:23.822Z,17.47
2018-07-01T00:56:50.778Z,17.56
2018-07-01T00:59:19.782Z,17.46
2018-07-01T01:01:49.795Z,17.49
2018-07-01T01:04:17.691Z,17.32
2018-07-01T01:06:46.679Z,17.34
2018-07-01T01:09:14.330Z,17.30
2018-07-01T01:11:41.385Z,17.28
2018-07-01T01:14:09.314Z,17.28
2018-07-01T01:16:41.910Z,17.19
2018-07-01T01:19:11.822Z,17.20
2018-07-01T01:21:52.650Z,17.14
2018-07-01T01:24:25.178Z,17.16
2018-07-01T01:26:53.094Z,17.03
2018-07-01T01:29:19.986Z,17.00
2018-07-01T01:31:47.698Z,16.97
2018-07-01T01:34:16.166Z,17.02
2018-07-01T01:36:50.743Z,16.96
2018-07-01T01:39:30.273Z,16.93
2018-07-01T01:42:08.218Z,16.85
2018-07-01T01:44:40.654Z,16.82
2018-07-01T01:47:13.682Z,16.76
2018-07-01T01:49:46.170Z,16.72
2018-07-01T01:52:16.394Z,16.66
2018-07-01T01:54:48.154Z,16.67
2018-07-01T01:57:24.864Z,16.74
2018-07-01T01:59:56.527Z,16.65
2018-07-01T02:02:44.379Z,16.55
2018-07-01T02:05:34.630Z,16.53
2018-07-01T02:08:05.538Z,16.49
2018-07-01T02:10:32.502Z,16.63
2018-07-01T02:13:00.517Z,16.55
2018-07-01T02:15:32.546Z,16.51
2018-07-01T02:17:59.569Z,16.47
2018-07-01T02:23:29.366Z,16.42
2018-07-01T02:25:56.322Z,16.53
2018-07-01T02:28:23.291Z,16.45
2018-07-01T02:30:59.930Z,16.44
2018-07-01T02:33:29.891Z,16.35
2018-07-01T02:35:57.083Z,16.33
2018-07-01T02:38:24.743Z,16.35
2018-07-01T02:40:51.692Z,16.35
2018-07-01T02:43:19.687Z,16.18
2018-07-01T02:45:46.606Z,16.26
2018-07-01T02:48:13.490Z,16.27
2018-07-01T02:50:41.267Z,16.16
2018-07-01T02:53:18.970Z,16.01
2018-07-01T02:55:48.912Z,16.01
2018-07-01T02:58:21.162Z,15.94
2018-07-01T03:00:49.777Z,15.78
2018-07-01T03:03:22.062Z,15.76
2018-07-01T03:05:55.016Z,15.82
2018-07-01T03:08:21.860Z,15.71
2018-07-01T03:10:51.789Z,15.64
2018-07-01T03:13:19.186Z,15.78
2018-07-01T03:15:49.719Z,15.70
2018-07-01T03:18:26.713Z,15.63
2018-07-01T03:20:56.988Z,15.73
2018-07-01T03:23:27.379Z,15.57
2018-07-01T03:25:55.506Z,15.52
2018-07-01T03:28:35.104Z,15.50
2018-07-01T03:31:10.275Z,15.39
2018-07-01T03:33:38.566Z,15.33
2018-07-01T03:36:08.663Z,15.32
2018-07-01T03:38:36.632Z,15.40
2018-07-01T03:41:03.582Z,15.44
2018-07-01T03:43:30.510Z,15.71
2018-07-01T03:46:00.770Z,15.96
2018-07-01T03:48:28.319Z,16.11
2018-07-01T03:50:55.186Z,16.32
2018-07-01T03:53:22.185Z,16.41
2018-07-01T03:55:49.839Z,16.54
2018-07-01T03:58:17.220Z,16.72
2018-07-01T04:00:44.297Z,16.94
2018-07-01T04:03:11.208Z,17.04
2018-07-01T04:05:44.286Z,17.08
2018-07-01T04:08:12.810Z,17.20
2018-07-01T04:10:43.463Z,17.11
2018-07-01T04:13:10.418Z,17.29
2018-07-01T04:15:37.387Z,17.73
2018-07-01T04:18:04.734Z,17.58
2018-07-01T04:20:33.722Z,17.65
2018-07-01T04:23:05.152Z,17.79
2018-07-01T04:25:35.638Z,17.97
2018-07-01T04:28:03.322Z,17.98
2018-07-01T04:30:30.287Z,18.05
2018-07-01T04:33:00.202Z,18.01
2018-07-01T04:35:27.166Z,17.98
2018-07-01T04:37:54.802Z,17.98
2018-07-01T04:40:21.782Z,18.21
2018-07-01T04:42:48.751Z,18.30
2018-07-01T04:45:15.703Z,18.34
2018-07-01T04:47:46.056Z,18.51
2018-07-01T04:50:13.006Z,18.72
2018-07-01T04:52:39.999Z,18.43
2018-07-01T04:55:08.021Z,18.67
2018-07-01T04:57:35.965Z,18.68
2018-07-01T05:00:05.802Z,18.62
2018-07-01T05:02:32.796Z,18.69
2018-07-01T05:05:01.469Z,18.62
2018-07-01T05:07:28.915Z,18.26
2018-07-01T05:09:55.842Z,18.12
2018-07-01T05:12:22.786Z,17.99
2018-07-01T05:14:49.784Z,18.11
2018-07-01T05:17:17.763Z,18.05
2018-07-01T05:19:44.682Z,18.06
2018-07-01T05:22:11.602Z,18.15
2018-07-01T05:24:38.457Z,18.11
2018-07-01T05:27:05.415Z,18.09
2018-07-01T05:29:33.858Z,18.24
2018-07-01T05:32:00.806Z,17.99
2018-07-01T05:34:27.760Z,17.95
2018-07-01T05:36:54.730Z,18.06
2018-07-01T05:39:21.676Z,18.11
2018-07-01T05:41:48.538Z,18.30
2018-07-01T05:44:16.383Z,18.31
2018-07-01T05:46:43.443Z,18.45
2018-07-01T05:49:10.338Z,18.49
2018-07-01T05:51:39.326Z,18.62
2018-07-01T05:54:12.438Z,18.86
2018-07-01T05:56:42.342Z,18.90
2018-07-01T05:59:09.330Z,19.04
2018-07-01T06:01:40.169Z,18.87
2018-07-01T06:04:10.114Z,18.63
2018-07-01T06:06:37.014Z,19.02
2018-07-01T06:09:07.907Z,19.09
2018-07-01T06:11:35.886Z,19.08
2018-07-01T06:14:03.810Z,19.01
2018-07-01T06:16:30.732Z,19.24
2018-07-01T06:18:57.635Z,19.01
2018-07-01T06:21:24.534Z,19.61
2018-07-01T06:23:51.499Z,19.63
2018-07-01T06:29:18.130Z,19.83
2018-07-01T06:31:45.891Z,20.09
2018-07-01T06:34:13.379Z,19.90
2018-07-01T06:36:48.179Z,19.97
2018-07-01T06:39:15.834Z,19.92
2018-07-01T06:41:42.763Z,19.95
2018-07-01T06:44:09.741Z,20.28
2018-07-01T06:46:36.692Z,20.54
2018-07-01T06:49:04.995Z,20.68
2018-07-01T06:51:32.972Z,20.78
2018-07-01T06:53:59.911Z,20.97
2018-07-01T06:56:27.855Z,20.62
2018-07-01T06:58:55.554Z,20.75
2018-07-01T07:01:22.419Z,20.88
2018-07-01T07:03:49.353Z,21.42
2018-07-01T07:06:16.208Z,21.19
2018-07-01T07:08:43.168Z,21.12
2018-07-01T07:11:10.029Z,21.05
2018-07-01T07:13:36.949Z,20.83
2018-07-01T07:16:03.820Z,20.93
2018-07-01T07:18:30.778Z,20.83
2018-07-01T07:20:57.749Z,20.84
2018-07-01T07:23:24.635Z,21.31
2018-07-01T07:25:51.501Z,21.20
2018-07-01T07:28:18.365Z,20.90
2018-07-01T07:30:45.223Z,21.05
2018-07-01T07:33:12.140Z,21.10
2018-07-01T07:35:39.018Z,21.27
2018-07-01T07:38:05.944Z,21.81
2018-07-01T07:40:32.848Z,21.54
2018-07-01T07:43:07.916Z,21.66
2018-07-01T07:45:43.573Z,21.62
2018-07-01T07:48:10.528Z,22.10
2018-07-01T07:50:37.395Z,21.61
2018-07-01T07:53:04.307Z,21.62
2018-07-01T07:55:31.184Z,21.86
2018-07-01T07:57:58.084Z,22.35
2018-07-01T08:00:25.925Z,21.92
2018-07-01T08:02:58.394Z,22.19
2018-07-01T08:05:29.151Z,21.91
2018-07-01T08:07:55.876Z,21.84
2018-07-01T08:10:25.829Z,22.29
2018-07-01T08:12:54.481Z,22.47
2018-07-01T08:15:25.242Z,22.06
2018-07-01T08:17:56.065Z,22.25
2018-07-01T08:20:27.512Z,22.24
2018-07-01T08:22:58.932Z,22.40
2018-07-01T08:25:28.671Z,22.07
2018-07-01T08:27:58.392Z,22.07
2018-07-01T08:30:29.845Z,22.15
2018-07-01T08:33:03.555Z,22.02
2018-07-01T08:35:32.494Z,22.46
2018-07-01T08:38:03.177Z,23.05
2018-07-01T08:40:33.475Z,22.96
2018-07-01T08:43:01.146Z,22.77
2018-07-01T08:45:31.067Z,22.91
2018-07-01T08:48:15.732Z,22.85
2018-07-01T08:50:49.970Z,23.33
2018-07-01T08:53:19.603Z,23.53
2018-07-01T08:55:47.498Z,23.30
2018-07-01T08:58:16.136Z,23.13
2018-07-01T09:00:45.047Z,23.49
2018-07-01T09:03:12.891Z,23.89
2018-07-01T09:05:45.493Z,23.64
2018-07-01T09:08:14.075Z,23.58
2018-07-01T09:10:44.103Z,23.96
2018-07-01T09:13:14.956Z,24.34
2018-07-01T09:15:41.888Z,24.13
2018-07-01T09:18:09.847Z,24.22
2018-07-01T09:20:37.787Z,24.15
2018-07-01T09:23:04.720Z,24.32
2018-07-01T09:25:31.620Z,24.59
2018-07-01T09:27:59.892Z,23.95
2018-07-01T09:30:26.787Z,23.98
2018-07-01T09:32:56.723Z,24.61
2018-07-01T09:35:24.747Z,24.33
2018-07-01T09:37:52.466Z,24.16
2018-07-01T09:40:19.528Z,24.35
2018-07-01T09:42:50.434Z,24.58
2018-07-01T09:45:19.111Z,24.93
2018-07-01T09:47:50.154Z,25.04
2018-07-01T09:50:17.442Z,24.66
2018-07-01T09:52:47.267Z,24.80
2018-07-01T09:55:14.147Z,24.78
2018-07-01T09:57:42.059Z,24.97
2018-07-01T10:00:10.060Z,25.06
2018-07-01T10:02:53.835Z,25.41
2018-07-01T10:05:22.943Z,25.66
2018-07-01T10:07:49.872Z,25.70
2018-07-01T10:10:18.593Z,26.08
2018-07-01T10:12:53.759Z,25.93
2018-07-01T10:15:20.909Z,25.87
2018-07-01T10:17:48.103Z,25.65
2018-07-01T10:20:18.067Z,25.75
2018-07-01T10:22:49.463Z,26.12
2018-07-01T10:25:27.907Z,25.71
2018-07-01T10:27:57.910Z,26.27
2018-07-01T10:30:26.676Z,25.83
2018-07-01T10:32:58.399Z,25.67
2018-07-01T10:35:36.916Z,25.85
2018-07-01T10:38:09.715Z,25.69
2018-07-01T10:40:39.775Z,26.08
2018-07-01T10:43:23.889Z,26.02
2018-07-01T10:45:53.226Z,26.34
2018-07-01T10:48:26.436Z,26.34
2018-07-01T10:50:54.648Z,26.57
2018-07-01T10:53:21.668Z,26.19
2018-07-01T10:55:52.828Z,26.76
2018-07-01T10:58:22.484Z,26.37
2018-07-01T11:00:49.495Z,25.77
2018-07-01T11:03:17.515Z,26.18
2018-07-01T11:05:48.115Z,25.88
2018-07-01T11:08:15.085Z,26.01
2018-07-01T11:10:45.651Z,25.85
2018-07-01T11:13:14.607Z,26.01
2018-07-01T11:15:42.634Z,26.34
2018-07-01T11:18:12.656Z,26.24
2018-07-01T11:20:44.033Z,26.48
2018-07-01T11:23:24.371Z,26.65
2018-07-01T11:25:54.179Z,26.89
2018-07-01T11:28:22.116Z,27.12
2018-07-01T11:30:49.562Z,27.16
2018-07-01T11:33:21.447Z,26.59
2018-07-01T11:35:49.426Z,26.37
2018-07-01T11:38:18.286Z,26.58
2018-07-01T11:40:45.155Z,26.65
2018-07-01T11:43:12.164Z,26.66
2018-07-01T11:45:50.263Z,26.67
2018-07-01T11:48:18.111Z,26.87
2018-07-01T11:50:45.059Z,27.00
2018-07-01T11:53:15.959Z,26.81
2018-07-01T11:55:45.944Z,26.62
2018-07-01T11:58:14.974Z,26.31
2018-07-01T12:00:48.103Z,26.78
2018-07-01T12:03:24.780Z,26.84
2018-07-01T12:05:55.115Z,26.58
2018-07-01T12:08:23.097Z,27.01
2018-07-01T12:10:50.034Z,27.27
2018-07-01T12:13:21.395Z,27.37
2018-07-01T12:15:48.365Z,27.01
2018-07-01T12:18:17.368Z,27.03
2018-07-01T12:20:44.315Z,26.80
2018-07-01T12:23:12.395Z,26.97
2018-07-01T12:25:40.191Z,26.82
2018-07-01T12:28:09.178Z,26.91
2018-07-01T12:30:37.227Z,27.13
2018-07-01T12:33:06.189Z,27.06
2018-07-01T12:35:35.174Z,27.36
2018-07-01T12:38:03.975Z,27.85
2018-07-01T12:40:34.474Z,27.07
2018-07-01T12:43:01.468Z,27.23
2018-07-01T12:45:29.508Z,27.14
2018-07-01T12:47:56.557Z,27.24
2018-07-01T12:50:23.496Z,27.29
2018-07-01T12:52:51.175Z,27.56
2018-07-01T12:55:18.168Z,28.17
2018-07-01T12:57:45.219Z,27.41
2018-07-01T13:00:12.263Z,27.52
2018-07-01T13:02:40.239Z,27.69
2018-07-01T13:05:10.874Z,27.56
2018-07-01T13:07:37.816Z,27.69
2018-07-01T13:10:04.768Z,27.78
2018-07-01T13:12:32.751Z,27.55
2018-07-01T13:15:00.957Z,27.83
2018-07-01T13:17:28.616Z,27.47
2018-07-01T13:19:59.287Z,27.78
2018-07-01T13:22:31.139Z,27.58
2018-07-01T13:25:02.431Z,27.70
2018-07-01T13:27:32.331Z,27.37
2018-07-01T13:29:59.948Z,27.89
2018-07-01T13:32:29.208Z,27.76
2018-07-01T13:34:56.229Z,27.73
2018-07-01T13:37:23.240Z,27.94
2018-07-01T13:39:52.291Z,27.82
2018-07-01T13:42:21.157Z,27.67
2018-07-01T13:44:48.236Z,27.91
2018-07-01T13:47:16.211Z,28.11
2018-07-01T13:49:43.256Z,28.57
2018-07-01T13:52:10.188Z,28.72
2018-07-01T13:54:37.206Z,28.37
2018-07-01T13:57:05.320Z,28.24
2018-07-01T13:59:32.287Z,28.18
2018-07-01T14:01:59.160Z,28.13
2018-07-01T14:04:27.152Z,27.91
2018-07-01T14:06:54.723Z,27.70
2018-07-01T14:09:21.735Z,27.57
2018-07-01T14:11:49.686Z,27.65
2018-07-01T14:14:16.620Z,27.67
2018-07-01T14:16:43.571Z,27.47
2018-07-01T14:19:10.531Z,27.66
2018-07-01T14:21:37.606Z,27.50
2018-07-01T14:24:04.551Z,27.70
2018-07-01T14:26:31.505Z,27.79
2018-07-01T14:28:58.834Z,27.61
2018-07-01T14:31:26.096Z,27.85
2018-07-01T14:33:53.716Z,28.30
2018-07-01T14:36:20.811Z,28.53
2018-07-01T14:38:47.853Z,29.40
2018-07-01T14:41:14.799Z,29.31
2018-07-01T14:43:41.737Z,29.20
2018-07-01T14:46:09.278Z,29.70
2018-07-01T14:48:36.307Z,29.22
2018-07-01T14:51:04.184Z,29.76
2018-07-01T14:53:31.116Z,31.11
2018-07-01T14:55:58.517Z,31.78
2018-07-01T14:58:25.487Z,31.40
2018-07-01T15:00:52.467Z,31.01
2018-07-01T15:03:19.487Z,30.33
2018-07-01T15:05:46.428Z,30.11
2018-07-01T15:08:14.203Z,30.33
2018-07-01T15:10:41.152Z,29.88
2018-07-01T15:13:08.159Z,30.08
2018-07-01T15:15:35.760Z,30.56
2018-07-01T15:18:02.667Z,30.51
2018-07-01T15:20:30.292Z,31.48
2018-07-01T15:22:57.287Z,31.08
2018-07-01T15:25:24.306Z,32.01
2018-07-01T15:27:51.299Z,32.06
2018-07-01T15:30:18.268Z,31.58
2018-07-01T15:32:45.220Z,31.25
2018-07-01T15:35:12.756Z,31.15
2018-07-01T15:37:39.743Z,31.48
2018-07-01T15:40:07.839Z,30.96
2018-07-01T15:42:37.771Z,31.41
2018-07-01T15:45:06.403Z,31.36
2018-07-01T15:47:34.203Z,31.06
2018-07-01T15:50:01.212Z,31.37
2018-07-01T15:52:28.160Z,31.31
2018-07-01T15:54:55.167Z,31.65
2018-07-01T15:57:22.051Z,32.20
2018-07-01T15:59:49.063Z,31.79
2018-07-01T16:02:17.036Z,31.48
2018-07-01T16:04:43.944Z,31.38
2018-07-01T16:07:10.895Z,31.10
2018-07-01T16:09:37.890Z,32.17
2018-07-01T16:12:04.839Z,32.06
2018-07-01T16:14:32.739Z,31.89
2018-07-01T16:16:59.683Z,31.78
2018-07-01T16:19:26.719Z,31.98
2018-07-01T16:21:54.331Z,32.05
2018-07-01T16:24:21.279Z,31.59
2018-07-01T16:26:59.237Z,31.55
2018-07-01T16:29:26.780Z,31.22
2018-07-01T16:31:53.723Z,31.53
2018-07-01T16:34:20.687Z,31.04
2018-07-01T16:36:47.647Z,31.54
2018-07-01T16:39:14.594Z,32.49
2018-07-01T16:41:42.888Z,33.98
2018-07-01T16:44:09.924Z,32.73
2018-07-01T16:46:36.877Z,32.33
2018-07-01T16:49:03.927Z,31.89
2018-07-01T16:51:31.149Z,31.76
2018-07-01T16:53:58.096Z,32.28
2018-07-01T16:56:24.999Z,31.56
2018-07-01T16:58:51.983Z,31.99
2018-07-01T17:01:18.853Z,32.13
2018-07-01T17:03:45.735Z,32.19
2018-07-01T17:06:12.855Z,32.82
2018-07-01T17:08:40.354Z,33.31
2018-07-01T17:11:07.235Z,32.60
2018-07-01T17:13:34.103Z,32.47
2018-07-01T17:16:02.780Z,32.62
2018-07-01T17:18:29.671Z,32.38
2018-07-01T17:20:57.040Z,32.56
2018-07-01T17:23:23.994Z,32.53
2018-07-01T17:25:52.853Z,32.63
2018-07-01T17:28:20.404Z,33.69
2018-07-01T17:30:47.315Z,33.20
2018-07-01T17:33:20.047Z,32.70
2018-07-01T17:35:46.921Z,32.38
2018-07-01T17:38:13.824Z,32.66
2018-07-01T17:40:40.786Z,31.95
2018-07-01T17:43:07.659Z,31.82
2018-07-01T17:45:34.580Z,32.63
2018-07-01T17:48:01.461Z,31.85
2018-07-01T17:50:28.454Z,32.19
2018-07-01T17:52:55.346Z,32.28
2018-07-01T17:55:22.228Z,32.72
2018-07-01T17:57:49.123Z,32.98
2018-07-01T18:00:16.014Z,32.46
2018-07-01T18:02:42.934Z,32.46
2018-07-01T18:05:09.803Z,31.95
2018-07-01T18:07:36.662Z,31.46
2018-07-01T18:10:03.529Z,30.96
2018-07-01T18:12:30.400Z,31.69
2018-07-01T18:14:57.266Z,32.03
2018-07-01T18:17:24.147Z,31.26
2018-07-01T18:19:51.031Z,31.01
2018-07-01T18:22:35.923Z,31.25
2018-07-01T18:25:01.551Z,31.09
2018-07-01T18:27:11.672Z,31.53
2018-07-01T18:29:38.551Z,31.04
2018-07-01T18:32:05.459Z,30.61
2018-07-01T18:34:32.331Z,29.63
2018-07-01T18:36:59.236Z,29.37
2018-07-01T18:39:26.815Z,28.07
2018-07-01T18:41:53.763Z,27.28
2018-07-01T18:44:20.715Z,26.17
2018-07-01T18:46:47.848Z,25.33
2018-07-01T18:49:16.791Z,24.94
2018-07-01T18:51:44.784Z,24.66
2018-07-01T18:54:12.375Z,24.38
2018-07-01T18:56:39.259Z,24.12
2018-07-01T18:59:06.188Z,23.96
2018-07-01T19:01:33.152Z,23.73
2018-07-01T19:04:01.825Z,23.55
2018-07-01T19:06:28.699Z,23.24
2018-07-01T19:08:55.559Z,23.16
2018-07-01T19:11:22.472Z,23.04
2018-07-01T19:13:49.365Z,22.89
2018-07-01T19:16:16.236Z,22.76
2018-07-01T19:18:43.181Z,22.59
2018-07-01T19:21:10.028Z,22.54
2018-07-01T19:23:37.515Z,22.38
2018-07-01T19:26:04.468Z,22.41
2018-07-01T19:28:31.331Z,22.34
2018-07-01T19:30:58.215Z,22.26
2018-07-01T19:33:25.091Z,22.11
2018-07-01T19:35:52.187Z,22.23
2018-07-01T19:38:22.084Z,22.04
2018-07-01T19:40:48.964Z,21.97
2018-07-01T19:43:15.891Z,21.97
2018-07-01T19:45:42.794Z,21.85
2018-07-01T19:48:11.376Z,21.76
2018-07-01T19:50:38.339Z,21.63
2018-07-01T19:53:05.904Z,21.68
2018-07-01T19:55:34.340Z,21.66
2018-07-01T19:58:02.872Z,21.61
2018-07-01T20:00:29.908Z,21.49
2018-07-01T20:03:00.835Z,21.42
2018-07-01T20:05:28.426Z,21.27
2018-07-01T20:07:59.443Z,21.21
2018-07-01T20:10:26.355Z,21.09
2018-07-01T20:12:53.248Z,20.91
2018-07-01T20:15:20.099Z,20.83
2018-07-01T20:17:46.972Z,20.70
2018-07-01T20:20:13.844Z,20.58
2018-07-01T20:22:40.692Z,20.57
2018-07-01T20:25:07.607Z,20.54
2018-07-01T20:27:34.459Z,20.46
2018-07-01T20:30:01.311Z,20.28
2018-07-01T20:32:28.163Z,20.32
2018-07-01T20:34:55.055Z,20.30
2018-07-01T20:37:21.906Z,20.25
2018-07-01T20:39:48.759Z,20.21
2018-07-01T20:42:15.636Z,20.14
2018-07-01T20:44:42.487Z,20.07
2018-07-01T20:47:09.359Z,20.00
2018-07-01T20:49:36.226Z,19.84
2018-07-01T20:52:03.108Z,19.83
2018-07-01T20:54:29.958Z,20.00
2018-07-01T20:56:56.823Z,19.73
2018-07-01T20:59:23.687Z,19.71
2018-07-01T21:01:50.535Z,19.64
2018-07-01T21:04:17.400Z,19.59
2018-07-01T21:06:44.259Z,19.55
2018-07-01T21:09:11.552Z,19.39
2018-07-01T21:11:38.411Z,19.30
2018-07-01T21:14:05.389Z,19.18
2018-07-01T21:16:32.248Z,19.10
2018-07-01T21:18:59.102Z,19.04
2018-07-01T21:21:25.947Z,19.05
2018-07-01T21:23:52.798Z,18.88
2018-07-01T21:26:19.659Z,18.61
2018-07-01T21:28:46.512Z,18.56
2018-07-01T21:31:13.384Z,18.64
2018-07-01T21:33:40.230Z,18.67
2018-07-01T21:36:07.079Z,18.61
2018-07-01T21:38:33.943Z,18.55
2018-07-01T21:41:00.871Z,18.55
2018-07-01T21:43:27.727Z,18.62
2018-07-01T21:45:54.593Z,18.73
2018-07-01T21:48:21.455Z,18.63
2018-07-01T21:50:48.343Z,18.60
2018-07-01T21:53:15.231Z,18.44
2018-07-01T21:55:42.094Z,18.32
2018-07-01T21:58:09.094Z,18.26
2018-07-01T22:00:35.971Z,18.32
2018-07-01T22:03:03.882Z,18.18
2018-07-01T22:05:30.871Z,18.12
2018-07-01T22:07:57.809Z,17.98
2018-07-01T22:10:36.324Z,17.85
2018-07-01T22:13:42.399Z,17.75
2018-07-01T22:16:09.269Z,17.62
2018-07-01T22:18:36.111Z,17.56
2018-07-01T22:21:02.976Z,17.58
2018-07-01T22:23:29.830Z,17.44
2018-07-01T22:25:56.691Z,17.49
2018-07-01T22:28:23.551Z,17.45
2018-07-01T22:30:50.427Z,17.36
2018-07-01T22:33:17.306Z,17.22
2018-07-01T22:35:44.170Z,17.27
2018-07-01T22:38:11.911Z,17.18
2018-07-01T22:40:38.784Z,17.06
2018-07-01T22:43:05.648Z,17.07
2018-07-01T22:45:32.510Z,17.03
2018-07-01T22:47:59.383Z,16.92
2018-07-01T22:50:26.239Z,16.99
2018-07-01T22:52:53.099Z,16.96
2018-07-01T22:55:19.971Z,17.10
2018-07-01T22:57:46.836Z,16.93
2018-07-01T23:00:13.707Z,16.72
2018-07-01T23:03:12.182Z,16.68
2018-07-01T23:05:39.051Z,16.72
2018-07-01T23:08:05.903Z,16.72
2018-07-01T23:10:32.931Z,16.74
2018-07-01T23:13:00.041Z,16.72
2018-07-01T23:15:26.919Z,16.90
2018-07-01T23:17:54.187Z,16.73
2018-07-01T23:20:21.056Z,16.80
2018-07-01T23:22:47.914Z,16.80
2018-07-01T23:25:14.921Z,16.84
2018-07-01T23:27:43.719Z,16.83
2018-07-01T23:30:10.583Z,16.80
2018-07-01T23:32:37.500Z,16.86
2018-07-01T23:35:04.490Z,17.04
2018-07-01T23:37:31.370Z,16.84
2018-07-01T23:39:58.248Z,16.78
2018-07-01T23:42:25.194Z,16.73
2018-07-01T23:44:52.042Z,16.69
2018-07-01T23:47:19.487Z,16.56
2018-07-01T23:49:46.363Z,16.47
2018-07-01T23:52:13.231Z,16.48
2018-07-01T23:54:40.103Z,16.40
2018-07-01T23:57:06.955Z,16.32
2018-07-01T23:59:33.810Z,16.28
